sensor_id;sensor_type;location;lat;lon;timestamp;temperature;humidity
71436;SHT31;59251;51.326;12.370;2022-09-17T00:00:55;11.42;78.55
71436;SHT31;59251;51.326;12.370;2022-09-17T00:03:20;11.42;78.57
71436;SHT31;59251;51.326;12.370;2022-09-17T00:05:47;11.44;78.60
71436;SHT31;59251;51.326;12.370;2022-09-17T00:08:13;11.41;78.62
71436;SHT31;59251;51.326;12.370;2022-09-17T00:10:41;11.45;78.61
71436;SHT31;59251;51.326;12.370;2022-09-17T00:13:07;11.48;78.61
71436;SHT31;59251;51.326;12.370;2022-09-17T00:15:42;11.54;78.30
71436;SHT31;59251;51.326;12.370;2022-09-17T00:18:07;11.54;78.41
71436;SHT31;59251;51.326;12.370;2022-09-17T00:20:39;11.54;78.25
71436;SHT31;59251;51.326;12.370;2022-09-17T00:23:05;11.55;78.36
71436;SHT31;59251;51.326;12.370;2022-09-17T00:25:31;11.48;78.42
71436;SHT31;59251;51.326;12.370;2022-09-17T00:27:56;11.68;78.11
71436;SHT31;59251;51.326;12.370;2022-09-17T00:30:22;11.59;78.22
71436;SHT31;59251;51.326;12.370;2022-09-17T00:32:47;11.61;78.67
71436;SHT31;59251;51.326;12.370;2022-09-17T00:35:12;11.71;78.27
71436;SHT31;59251;51.326;12.370;2022-09-17T00:37:38;11.71;78.30
71436;SHT31;59251;51.326;12.370;2022-09-17T00:40:03;11.69;78.19
71436;SHT31;59251;51.326;12.370;2022-09-17T00:42:29;11.81;78.12
71436;SHT31;59251;51.326;12.370;2022-09-17T00:44:56;11.86;77.93
71436;SHT31;59251;51.326;12.370;2022-09-17T00:47:36;11.81;78.09
71436;SHT31;59251;51.326;12.370;2022-09-17T00:50:08;11.90;77.69
71436;SHT31;59251;51.326;12.370;2022-09-17T00:52:45;11.89;77.81
71436;SHT31;59251;51.326;12.370;2022-09-17T00:55:16;11.82;78.22
71436;SHT31;59251;51.326;12.370;2022-09-17T00:57:43;11.99;77.63
71436;SHT31;59251;51.326;12.370;2022-09-17T01:00:11;12.02;77.57
71436;SHT31;59251;51.326;12.370;2022-09-17T01:02:37;11.93;77.72
71436;SHT31;59251;51.326;12.370;2022-09-17T01:05:03;12.00;77.78
71436;SHT31;59251;51.326;12.370;2022-09-17T01:07:39;11.93;78.12
71436;SHT31;59251;51.326;12.370;2022-09-17T01:14:06;11.96;77.96
71436;SHT31;59251;51.326;12.370;2022-09-17T01:16:12;12.03;78.40
71436;SHT31;59251;51.326;12.370;2022-09-17T01:21:57;12.05;78.42
71436;SHT31;59251;51.326;12.370;2022-09-17T01:32:59;11.97;78.88
71436;SHT31;59251;51.326;12.370;2022-09-17T01:38:36;12.05;78.82
71436;SHT31;59251;51.326;12.370;2022-09-17T01:44:15;12.17;78.54
71436;SHT31;59251;51.326;12.370;2022-09-17T01:46:45;12.23;78.36
71436;SHT31;59251;51.326;12.370;2022-09-17T01:49:14;12.03;78.75
71436;SHT31;59251;51.326;12.370;2022-09-17T01:51:44;12.00;79.20
71436;SHT31;59251;51.326;12.370;2022-09-17T01:54:16;12.02;79.13
71436;SHT31;59251;51.326;12.370;2022-09-17T01:56:56;12.22;78.74
71436;SHT31;59251;51.326;12.370;2022-09-17T02:00:07;12.09;79.11
71436;SHT31;59251;51.326;12.370;2022-09-17T02:03:03;12.24;78.77
71436;SHT31;59251;51.326;12.370;2022-09-17T02:05:39;12.17;78.99
71436;SHT31;59251;51.326;12.370;2022-09-17T02:08:13;12.16;79.08
71436;SHT31;59251;51.326;12.370;2022-09-17T02:10:44;12.30;78.97
71436;SHT31;59251;51.326;12.370;2022-09-17T02:13:17;12.16;79.43
71436;SHT31;59251;51.326;12.370;2022-09-17T02:15:47;12.16;79.64
71436;SHT31;59251;51.326;12.370;2022-09-17T02:20:42;12.13;80.22
71436;SHT31;59251;51.326;12.370;2022-09-17T02:23:20;11.85;81.18
71436;SHT31;59251;51.326;12.370;2022-09-17T02:26:02;12.05;80.99
71436;SHT31;59251;51.326;12.370;2022-09-17T02:28:46;11.65;82.38
71436;SHT31;59251;51.326;12.370;2022-09-17T02:31:13;11.85;81.56
71436;SHT31;59251;51.326;12.370;2022-09-17T02:33:41;11.76;82.38
71436;SHT31;59251;51.326;12.370;2022-09-17T02:36:07;11.83;81.88
71436;SHT31;59251;51.326;12.370;2022-09-17T02:38:33;11.92;82.12
71436;SHT31;59251;51.326;12.370;2022-09-17T02:43:42;11.86;81.83
71436;SHT31;59251;51.326;12.370;2022-09-17T02:54:59;12.05;81.42
71436;SHT31;59251;51.326;12.370;2022-09-17T02:57:39;12.02;81.90
71436;SHT31;59251;51.326;12.370;2022-09-17T03:00:18;11.97;81.97
71436;SHT31;59251;51.326;12.370;2022-09-17T03:02:57;11.87;82.51
71436;SHT31;59251;51.326;12.370;2022-09-17T03:05:24;11.92;82.58
71436;SHT31;59251;51.326;12.370;2022-09-17T03:07:50;11.97;82.86
71436;SHT31;59251;51.326;12.370;2022-09-17T03:10:16;11.92;82.95
71436;SHT31;59251;51.326;12.370;2022-09-17T03:12:42;11.78;84.13
71436;SHT31;59251;51.326;12.370;2022-09-17T03:15:08;11.86;83.89
71436;SHT31;59251;51.326;12.370;2022-09-17T03:17:34;11.81;84.39
71436;SHT31;59251;51.326;12.370;2022-09-17T03:19:59;11.69;85.63
71436;SHT31;59251;51.326;12.370;2022-09-17T03:22:24;11.45;87.20
71436;SHT31;59251;51.326;12.370;2022-09-17T03:24:50;11.50;87.20
71436;SHT31;59251;51.326;12.370;2022-09-17T03:27:15;11.06;89.53
71436;SHT31;59251;51.326;12.370;2022-09-17T03:29:41;11.28;88.68
71436;SHT31;59251;51.326;12.370;2022-09-17T03:32:06;11.03;90.64
71436;SHT31;59251;51.326;12.370;2022-09-17T03:34:32;10.80;91.79
71436;SHT31;59251;51.326;12.370;2022-09-17T03:36:58;10.82;91.35
71436;SHT31;59251;51.326;12.370;2022-09-17T03:39:23;10.90;92.09
71436;SHT31;59251;51.326;12.370;2022-09-17T03:41:49;10.86;92.53
71436;SHT31;59251;51.326;12.370;2022-09-17T03:44:15;10.99;91.92
71436;SHT31;59251;51.326;12.370;2022-09-17T03:46:42;10.89;92.17
71436;SHT31;59251;51.326;12.370;2022-09-17T03:49:08;11.18;90.23
71436;SHT31;59251;51.326;12.370;2022-09-17T03:51:33;11.09;91.09
71436;SHT31;59251;51.326;12.370;2022-09-17T03:53:59;11.28;90.19
71436;SHT31;59251;51.326;12.370;2022-09-17T03:56:24;11.31;89.93
71436;SHT31;59251;51.326;12.370;2022-09-17T03:58:50;11.04;91.15
71436;SHT31;59251;51.326;12.370;2022-09-17T04:01:16;11.23;90.86
71436;SHT31;59251;51.326;12.370;2022-09-17T04:03:41;11.26;91.77
71436;SHT31;59251;51.326;12.370;2022-09-17T04:06:07;11.04;93.16
71436;SHT31;59251;51.326;12.370;2022-09-17T04:08:32;11.01;92.56
71436;SHT31;59251;51.326;12.370;2022-09-17T04:10:58;11.01;93.66
71436;SHT31;59251;51.326;12.370;2022-09-17T04:13:23;11.06;93.57
71436;SHT31;59251;51.326;12.370;2022-09-17T04:15:49;11.13;93.77
71436;SHT31;59251;51.326;12.370;2022-09-17T04:18:15;11.00;94.67
71436;SHT31;59251;51.326;12.370;2022-09-17T04:20:40;11.06;94.41
71436;SHT31;59251;51.326;12.370;2022-09-17T04:23:06;11.03;94.50
71436;SHT31;59251;51.326;12.370;2022-09-17T04:25:32;10.95;94.07
71436;SHT31;59251;51.326;12.370;2022-09-17T04:27:57;11.17;93.90
71436;SHT31;59251;51.326;12.370;2022-09-17T04:30:23;10.92;94.91
71436;SHT31;59251;51.326;12.370;2022-09-17T04:32:48;11.01;94.11
71436;SHT31;59251;51.326;12.370;2022-09-17T04:35:13;11.09;94.12
71436;SHT31;59251;51.326;12.370;2022-09-17T04:37:39;10.90;95.19
71436;SHT31;59251;51.326;12.370;2022-09-17T04:40:05;10.95;95.10
71436;SHT31;59251;51.326;12.370;2022-09-17T04:42:31;10.73;95.91
71436;SHT31;59251;51.326;12.370;2022-09-17T04:44:56;10.79;96.32
71436;SHT31;59251;51.326;12.370;2022-09-17T04:47:22;10.69;96.69
71436;SHT31;59251;51.326;12.370;2022-09-17T04:49:48;10.77;96.60
71436;SHT31;59251;51.326;12.370;2022-09-17T04:52:13;10.95;95.87
71436;SHT31;59251;51.326;12.370;2022-09-17T04:54:39;10.79;96.54
71436;SHT31;59251;51.326;12.370;2022-09-17T04:57:04;10.86;96.09
71436;SHT31;59251;51.326;12.370;2022-09-17T04:59:30;10.95;95.34
71436;SHT31;59251;51.326;12.370;2022-09-17T05:01:55;11.03;95.39
71436;SHT31;59251;51.326;12.370;2022-09-17T05:04:21;10.97;95.48
71436;SHT31;59251;51.326;12.370;2022-09-17T05:06:46;10.89;95.26
71436;SHT31;59251;51.326;12.370;2022-09-17T05:09:11;11.03;94.94
71436;SHT31;59251;51.326;12.370;2022-09-17T05:11:37;11.11;94.49
71436;SHT31;59251;51.326;12.370;2022-09-17T05:14:02;11.11;94.24
71436;SHT31;59251;51.326;12.370;2022-09-17T05:16:27;10.99;94.36
71436;SHT31;59251;51.326;12.370;2022-09-17T05:18:53;11.00;94.87
71436;SHT31;59251;51.326;12.370;2022-09-17T05:21:18;11.11;94.57
71436;SHT31;59251;51.326;12.370;2022-09-17T05:23:44;11.18;94.65
71436;SHT31;59251;51.326;12.370;2022-09-17T05:26:10;11.18;94.23
71436;SHT31;59251;51.326;12.370;2022-09-17T05:28:35;11.27;93.49
71436;SHT31;59251;51.326;12.370;2022-09-17T05:31:01;11.30;93.10
71436;SHT31;59251;51.326;12.370;2022-09-17T05:33:27;11.32;93.06
71436;SHT31;59251;51.326;12.370;2022-09-17T05:35:53;11.24;93.98
71436;SHT31;59251;51.326;12.370;2022-09-17T05:38:18;11.41;93.14
71436;SHT31;59251;51.326;12.370;2022-09-17T05:40:44;11.20;94.03
71436;SHT31;59251;51.326;12.370;2022-09-17T05:43:10;11.17;94.11
71436;SHT31;59251;51.326;12.370;2022-09-17T05:45:37;11.37;93.84
71436;SHT31;59251;51.326;12.370;2022-09-17T05:48:04;11.62;92.36
71436;SHT31;59251;51.326;12.370;2022-09-17T05:50:31;11.30;93.58
71436;SHT31;59251;51.326;12.370;2022-09-17T05:52:59;11.54;92.77
71436;SHT31;59251;51.326;12.370;2022-09-17T05:55:27;11.74;91.80
71436;SHT31;59251;51.326;12.370;2022-09-17T05:57:52;11.58;92.23
71436;SHT31;59251;51.326;12.370;2022-09-17T06:00:18;11.45;93.30
71436;SHT31;59251;51.326;12.370;2022-09-17T06:02:43;11.72;92.15
71436;SHT31;59251;51.326;12.370;2022-09-17T06:05:09;11.97;90.51
71436;SHT31;59251;51.326;12.370;2022-09-17T06:07:37;11.86;90.56
71436;SHT31;59251;51.326;12.370;2022-09-17T06:10:04;12.06;90.95
71436;SHT31;59251;51.326;12.370;2022-09-17T06:12:30;12.09;90.09
71436;SHT31;59251;51.326;12.370;2022-09-17T06:14:56;12.13;90.68
71436;SHT31;59251;51.326;12.370;2022-09-17T06:17:21;12.20;90.43
71436;SHT31;59251;51.326;12.370;2022-09-17T06:19:46;12.09;91.21
71436;SHT31;59251;51.326;12.370;2022-09-17T06:22:12;12.14;90.34
71436;SHT31;59251;51.326;12.370;2022-09-17T06:24:37;12.05;91.04
71436;SHT31;59251;51.326;12.370;2022-09-17T06:27:02;11.99;90.63
71436;SHT31;59251;51.326;12.370;2022-09-17T06:29:29;12.22;90.15
71436;SHT31;59251;51.326;12.370;2022-09-17T06:31:54;12.33;88.63
71436;SHT31;59251;51.326;12.370;2022-09-17T06:34:19;12.22;89.92
71436;SHT31;59251;51.326;12.370;2022-09-17T06:36:45;12.20;87.50
71436;SHT31;59251;51.326;12.370;2022-09-17T06:39:10;12.09;88.64
71436;SHT31;59251;51.326;12.370;2022-09-17T06:41:36;12.33;87.69
71436;SHT31;59251;51.326;12.370;2022-09-17T06:44:03;12.22;87.30
71436;SHT31;59251;51.326;12.370;2022-09-17T06:46:28;12.34;86.25
71436;SHT31;59251;51.326;12.370;2022-09-17T06:48:54;12.30;86.72
71436;SHT31;59251;51.326;12.370;2022-09-17T06:51:19;12.40;86.27
71436;SHT31;59251;51.326;12.370;2022-09-17T06:53:46;12.50;86.04
71436;SHT31;59251;51.326;12.370;2022-09-17T06:56:13;12.44;86.43
71436;SHT31;59251;51.326;12.370;2022-09-17T06:58:38;12.44;85.81
71436;SHT31;59251;51.326;12.370;2022-09-17T07:01:09;12.47;84.97
71436;SHT31;59251;51.326;12.370;2022-09-17T07:03:35;12.65;84.74
71436;SHT31;59251;51.326;12.370;2022-09-17T07:06:01;12.72;84.04
71436;SHT31;59251;51.326;12.370;2022-09-17T07:08:27;13.32;82.53
71436;SHT31;59251;51.326;12.370;2022-09-17T07:10:56;13.05;82.95
71436;SHT31;59251;51.326;12.370;2022-09-17T07:13:22;13.09;82.85
71436;SHT31;59251;51.326;12.370;2022-09-17T07:15:56;13.15;81.97
71436;SHT31;59251;51.326;12.370;2022-09-17T07:18:22;13.30;81.48
71436;SHT31;59251;51.326;12.370;2022-09-17T07:21:00;13.37;81.38
71436;SHT31;59251;51.326;12.370;2022-09-17T07:23:28;12.88;83.12
71436;SHT31;59251;51.326;12.370;2022-09-17T07:25:56;12.98;83.84
71436;SHT31;59251;51.326;12.370;2022-09-17T07:28:22;13.43;82.58
71436;SHT31;59251;51.326;12.370;2022-09-17T07:30:49;13.29;82.31
71436;SHT31;59251;51.326;12.370;2022-09-17T07:33:16;13.32;81.52
71436;SHT31;59251;51.326;12.370;2022-09-17T07:35:51;13.47;80.07
71436;SHT31;59251;51.326;12.370;2022-09-17T07:38:17;13.42;80.43
71436;SHT31;59251;51.326;12.370;2022-09-17T07:40:42;13.51;79.01
71436;SHT31;59251;51.326;12.370;2022-09-17T07:43:07;13.92;78.30
71436;SHT31;59251;51.326;12.370;2022-09-17T07:45:34;13.67;77.46
71436;SHT31;59251;51.326;12.370;2022-09-17T07:47:59;13.87;76.90
71436;SHT31;59251;51.326;12.370;2022-09-17T07:50:24;14.11;76.96
71436;SHT31;59251;51.326;12.370;2022-09-17T07:52:50;14.30;75.68
71436;SHT31;59251;51.326;12.370;2022-09-17T07:55:15;13.81;76.53
71436;SHT31;59251;51.326;12.370;2022-09-17T07:57:41;13.50;77.41
71436;SHT31;59251;51.326;12.370;2022-09-17T08:00:06;13.91;76.58
71436;SHT31;59251;51.326;12.370;2022-09-17T08:02:32;14.08;75.17
71436;SHT31;59251;51.326;12.370;2022-09-17T08:04:58;13.94;74.94
71436;SHT31;59251;51.326;12.370;2022-09-17T08:07:23;13.94;74.74
71436;SHT31;59251;51.326;12.370;2022-09-17T08:09:49;14.06;74.26
71436;SHT31;59251;51.326;12.370;2022-09-17T08:12:14;14.30;71.69
71436;SHT31;59251;51.326;12.370;2022-09-17T08:14:42;13.95;71.94
71436;SHT31;59251;51.326;12.370;2022-09-17T08:17:07;14.25;71.04
71436;SHT31;59251;51.326;12.370;2022-09-17T08:19:33;14.36;69.95
71436;SHT31;59251;51.326;12.370;2022-09-17T08:21:58;14.04;71.02
71436;SHT31;59251;51.326;12.370;2022-09-17T08:24:24;14.26;70.71
71436;SHT31;59251;51.326;12.370;2022-09-17T08:26:49;14.32;70.21
71436;SHT31;59251;51.326;12.370;2022-09-17T08:29:15;14.15;70.30
71436;SHT31;59251;51.326;12.370;2022-09-17T08:31:40;14.25;70.19
71436;SHT31;59251;51.326;12.370;2022-09-17T08:34:07;14.15;70.78
71436;SHT31;59251;51.326;12.370;2022-09-17T08:36:33;14.18;70.42
71436;SHT31;59251;51.326;12.370;2022-09-17T08:38:58;14.05;70.86
71436;SHT31;59251;51.326;12.370;2022-09-17T08:41:41;14.30;70.13
71436;SHT31;59251;51.326;12.370;2022-09-17T08:44:32;14.32;69.56
71436;SHT31;59251;51.326;12.370;2022-09-17T08:47:24;14.47;69.77
71436;SHT31;59251;51.326;12.370;2022-09-17T08:49:53;14.50;69.62
71436;SHT31;59251;51.326;12.370;2022-09-17T09:06:45;14.73;68.89
71436;SHT31;59251;51.326;12.370;2022-09-17T09:09:22;14.33;68.73
71436;SHT31;59251;51.326;12.370;2022-09-17T09:11:55;14.18;69.95
71436;SHT31;59251;51.326;12.370;2022-09-17T09:14:26;14.28;69.03
71436;SHT31;59251;51.326;12.370;2022-09-17T09:16:54;14.53;69.03
71436;SHT31;59251;51.326;12.370;2022-09-17T09:19:29;14.81;67.70
71436;SHT31;59251;51.326;12.370;2022-09-17T09:24:45;14.80;68.83
71436;SHT31;59251;51.326;12.370;2022-09-17T09:27:16;14.45;70.21
71436;SHT31;59251;51.326;12.370;2022-09-17T09:29:47;14.30;70.80
71436;SHT31;59251;51.326;12.370;2022-09-17T09:35:15;14.94;67.75
71436;SHT31;59251;51.326;12.370;2022-09-17T09:37:55;14.39;70.24
71436;SHT31;59251;51.326;12.370;2022-09-17T09:40:38;14.55;69.80
71436;SHT31;59251;51.326;12.370;2022-09-17T09:43:44;14.66;68.98
71436;SHT31;59251;51.326;12.370;2022-09-17T09:59:18;15.22;65.67
71436;SHT31;59251;51.326;12.370;2022-09-17T10:01:43;14.94;66.40
71436;SHT31;59251;51.326;12.370;2022-09-17T10:04:26;15.27;64.99
71436;SHT31;59251;51.326;12.370;2022-09-17T10:07:04;15.42;64.55
71436;SHT31;59251;51.326;12.370;2022-09-17T10:09:31;15.74;64.19
71436;SHT31;59251;51.326;12.370;2022-09-17T10:14:32;15.76;67.38
71436;SHT31;59251;51.326;12.370;2022-09-17T10:19:39;15.48;69.41
71436;SHT31;59251;51.326;12.370;2022-09-17T10:22:27;15.08;70.60
71436;SHT31;59251;51.326;12.370;2022-09-17T10:24:54;15.12;70.39
71436;SHT31;59251;51.326;12.370;2022-09-17T10:27:22;15.46;69.62
71436;SHT31;59251;51.326;12.370;2022-09-17T10:29:51;15.70;68.89
71436;SHT31;59251;51.326;12.370;2022-09-17T10:32:21;15.63;68.56
71436;SHT31;59251;51.326;12.370;2022-09-17T10:35:05;15.79;67.64
71436;SHT31;59251;51.326;12.370;2022-09-17T10:38:24;15.35;68.18
71436;SHT31;59251;51.326;12.370;2022-09-17T10:40:26;15.50;68.52
71436;SHT31;59251;51.326;12.370;2022-09-17T10:45:38;15.52;67.21
71436;SHT31;59251;51.326;12.370;2022-09-17T10:48:04;15.66;67.64
71436;SHT31;59251;51.326;12.370;2022-09-17T10:50:31;15.60;67.17
71436;SHT31;59251;51.326;12.370;2022-09-17T10:53:01;15.56;67.84
71436;SHT31;59251;51.326;12.370;2022-09-17T11:00:54;16.14;65.73
71436;SHT31;59251;51.326;12.370;2022-09-17T11:12:39;16.34;62.98
71436;SHT31;59251;51.326;12.370;2022-09-17T11:39:48;14.09;74.55
71436;SHT31;59251;51.326;12.370;2022-09-17T11:42:22;14.02;72.44
71436;SHT31;59251;51.326;12.370;2022-09-17T11:44:56;13.84;74.09
71436;SHT31;59251;51.326;12.370;2022-09-17T11:47:55;14.09;75.14
71436;SHT31;59251;51.326;12.370;2022-09-17T11:50:30;14.46;75.40
71436;SHT31;59251;51.326;12.370;2022-09-17T11:53:10;15.79;68.93
71436;SHT31;59251;51.326;12.370;2022-09-17T11:55:49;15.52;69.75
71436;SHT31;59251;51.326;12.370;2022-09-17T12:01:10;15.82;70.08
71436;SHT31;59251;51.326;12.370;2022-09-17T12:03:41;15.46;69.48
71436;SHT31;59251;51.326;12.370;2022-09-17T12:06:15;15.42;69.99
71436;SHT31;59251;51.326;12.370;2022-09-17T12:09:15;15.39;70.06
71436;SHT31;59251;51.326;12.370;2022-09-17T12:11:56;16.11;65.98
71436;SHT31;59251;51.326;12.370;2022-09-17T12:14:29;16.90;62.53
71436;SHT31;59251;51.326;12.370;2022-09-17T12:16:57;17.12;60.09
71436;SHT31;59251;51.326;12.370;2022-09-17T12:19:36;18.46;55.76
71436;SHT31;59251;51.326;12.370;2022-09-17T12:22:06;17.69;55.80
71436;SHT31;59251;51.326;12.370;2022-09-17T12:24:33;18.02;55.52
71436;SHT31;59251;51.326;12.370;2022-09-17T12:32:33;19.77;47.71
71436;SHT31;59251;51.326;12.370;2022-09-17T12:40:57;20.11;48.64
71436;SHT31;59251;51.326;12.370;2022-09-17T12:44:00;20.28;47.76
71436;SHT31;59251;51.326;12.370;2022-09-17T12:51:56;19.18;46.27
71436;SHT31;59251;51.326;12.370;2022-09-17T13:02:37;19.05;46.87
71436;SHT31;59251;51.326;12.370;2022-09-17T13:19:04;21.38;42.72
71436;SHT31;59251;51.326;12.370;2022-09-17T13:21:42;20.19;44.68
71436;SHT31;59251;51.326;12.370;2022-09-17T13:24:21;20.43;45.15
71436;SHT31;59251;51.326;12.370;2022-09-17T13:26:49;21.10;42.46
71436;SHT31;59251;51.326;12.370;2022-09-17T13:32:08;21.59;42.70
71436;SHT31;59251;51.326;12.370;2022-09-17T13:34:33;21.90;42.44
71436;SHT31;59251;51.326;12.370;2022-09-17T13:37:05;21.32;42.28
71436;SHT31;59251;51.326;12.370;2022-09-17T13:39:47;21.41;42.39
71436;SHT31;59251;51.326;12.370;2022-09-17T13:42:21;20.76;43.10
71436;SHT31;59251;51.326;12.370;2022-09-17T13:45:04;21.14;42.95
71436;SHT31;59251;51.326;12.370;2022-09-17T13:47:32;21.97;41.15
71436;SHT31;59251;51.326;12.370;2022-09-17T13:50:05;21.38;42.60
71436;SHT31;59251;51.326;12.370;2022-09-17T13:55:05;21.58;41.21
71436;SHT31;59251;51.326;12.370;2022-09-17T13:57:32;22.20;39.66
71436;SHT31;59251;51.326;12.370;2022-09-17T13:59:59;20.50;43.40
71436;SHT31;59251;51.326;12.370;2022-09-17T14:02:28;21.25;41.25
71436;SHT31;59251;51.326;12.370;2022-09-17T14:04:54;21.37;41.75
71436;SHT31;59251;51.326;12.370;2022-09-17T14:09:53;20.69;42.98
71436;SHT31;59251;51.326;12.370;2022-09-17T14:12:52;22.04;40.50
71436;SHT31;59251;51.326;12.370;2022-09-17T14:20:55;23.95;36.79
71436;SHT31;59251;51.326;12.370;2022-09-17T14:23:31;22.61;37.40
71436;SHT31;59251;51.326;12.370;2022-09-17T14:25:58;21.78;38.43
71436;SHT31;59251;51.326;12.370;2022-09-17T14:28:44;24.26;34.76
71436;SHT31;59251;51.326;12.370;2022-09-17T14:31:17;22.71;38.88
71436;SHT31;59251;51.326;12.370;2022-09-17T14:33:43;21.52;39.07
71436;SHT31;59251;51.326;12.370;2022-09-17T14:36:19;22.66;37.90
71436;SHT31;59251;51.326;12.370;2022-09-17T14:38:53;23.10;37.01
71436;SHT31;59251;51.326;12.370;2022-09-17T14:41:26;20.66;41.67
71436;SHT31;59251;51.326;12.370;2022-09-17T14:47:02;21.55;41.08
71436;SHT31;59251;51.326;12.370;2022-09-17T14:49:34;22.58;37.24
71436;SHT31;59251;51.326;12.370;2022-09-17T14:52:00;22.00;39.08
71436;SHT31;59251;51.326;12.370;2022-09-17T14:54:32;20.94;39.71
71436;SHT31;59251;51.326;12.370;2022-09-17T14:57:02;21.18;39.38
71436;SHT31;59251;51.326;12.370;2022-09-17T14:59:57;22.04;39.37
71436;SHT31;59251;51.326;12.370;2022-09-17T15:02:43;21.79;40.16
71436;SHT31;59251;51.326;12.370;2022-09-17T15:05:16;24.26;36.55
71436;SHT31;59251;51.326;12.370;2022-09-17T15:07:42;23.17;35.97
71436;SHT31;59251;51.326;12.370;2022-09-17T15:10:17;23.65;35.72
71436;SHT31;59251;51.326;12.370;2022-09-17T15:12:44;21.31;37.41
71436;SHT31;59251;51.326;12.370;2022-09-17T15:15:21;22.84;35.17
71436;SHT31;59251;51.326;12.370;2022-09-17T15:17:48;21.90;35.12
71436;SHT31;59251;51.326;12.370;2022-09-17T15:20:23;22.62;33.67
71436;SHT31;59251;51.326;12.370;2022-09-17T15:22:56;22.18;33.96
71436;SHT31;59251;51.326;12.370;2022-09-17T15:25:28;22.64;33.17
71436;SHT31;59251;51.326;12.370;2022-09-17T15:27:56;23.62;36.15
71436;SHT31;59251;51.326;12.370;2022-09-17T15:30:24;21.88;39.83
71436;SHT31;59251;51.326;12.370;2022-09-17T15:32:57;22.30;39.28
71436;SHT31;59251;51.326;12.370;2022-09-17T15:35:31;22.69;38.96
71436;SHT31;59251;51.326;12.370;2022-09-17T15:38:02;20.53;42.52
71436;SHT31;59251;51.326;12.370;2022-09-17T15:40:35;19.97;43.53
71436;SHT31;59251;51.326;12.370;2022-09-17T15:45:38;18.02;48.15
71436;SHT31;59251;51.326;12.370;2022-09-17T15:50:58;17.17;50.85
71436;SHT31;59251;51.326;12.370;2022-09-17T15:53:29;16.92;51.18
71436;SHT31;59251;51.326;12.370;2022-09-17T16:01:30;15.80;53.36
71436;SHT31;59251;51.326;12.370;2022-09-17T16:04:07;15.17;52.64
71436;SHT31;59251;51.326;12.370;2022-09-17T16:06:35;15.24;53.07
71436;SHT31;59251;51.326;12.370;2022-09-17T16:09:00;15.27;52.45
71436;SHT31;59251;51.326;12.370;2022-09-17T16:11:28;14.77;53.42
71436;SHT31;59251;51.326;12.370;2022-09-17T16:13:55;15.31;52.53
71436;SHT31;59251;51.326;12.370;2022-09-17T16:16:25;15.20;52.74
71436;SHT31;59251;51.326;12.370;2022-09-17T16:18:51;15.04;53.49
71436;SHT31;59251;51.326;12.370;2022-09-17T16:21:19;14.79;54.77
71436;SHT31;59251;51.326;12.370;2022-09-17T16:23:45;14.79;55.18
71436;SHT31;59251;51.326;12.370;2022-09-17T16:26:15;14.79;55.51
71436;SHT31;59251;51.326;12.370;2022-09-17T16:28:43;14.76;56.25
71436;SHT31;59251;51.326;12.370;2022-09-17T16:31:11;14.88;56.49
71436;SHT31;59251;51.326;12.370;2022-09-17T16:33:37;14.70;57.47
71436;SHT31;59251;51.326;12.370;2022-09-17T16:36:02;14.50;59.21
71436;SHT31;59251;51.326;12.370;2022-09-17T16:38:29;14.39;60.44
71436;SHT31;59251;51.326;12.370;2022-09-17T16:40:54;13.88;62.31
71436;SHT31;59251;51.326;12.370;2022-09-17T16:43:20;13.66;63.12
71436;SHT31;59251;51.326;12.370;2022-09-17T16:46:06;14.16;62.86
71436;SHT31;59251;51.326;12.370;2022-09-17T16:48:32;13.97;63.32
71436;SHT31;59251;51.326;12.370;2022-09-17T16:50:58;13.91;63.84
71436;SHT31;59251;51.326;12.370;2022-09-17T16:53:25;13.84;63.37
71436;SHT31;59251;51.326;12.370;2022-09-17T16:55:51;13.56;64.55
71436;SHT31;59251;51.326;12.370;2022-09-17T16:58:16;13.67;65.36
71436;SHT31;59251;51.326;12.370;2022-09-17T17:00:42;13.10;68.24
71436;SHT31;59251;51.326;12.370;2022-09-17T17:03:10;12.92;69.88
71436;SHT31;59251;51.326;12.370;2022-09-17T17:05:36;12.51;72.53
71436;SHT31;59251;51.326;12.370;2022-09-17T17:08:02;12.71;71.45
71436;SHT31;59251;51.326;12.370;2022-09-17T17:10:27;12.36;73.29
71436;SHT31;59251;51.326;12.370;2022-09-17T17:12:53;12.12;74.14
71436;SHT31;59251;51.326;12.370;2022-09-17T17:15:18;12.22;73.92
71436;SHT31;59251;51.326;12.370;2022-09-17T17:17:45;12.67;72.73
71436;SHT31;59251;51.326;12.370;2022-09-17T17:20:10;12.78;72.13
71436;SHT31;59251;51.326;12.370;2022-09-17T17:22:39;12.64;73.08
71436;SHT31;59251;51.326;12.370;2022-09-17T17:25:06;12.80;72.18
71436;SHT31;59251;51.326;12.370;2022-09-17T17:27:32;12.60;72.59
71436;SHT31;59251;51.326;12.370;2022-09-17T17:29:58;12.82;71.71
71436;SHT31;59251;51.326;12.370;2022-09-17T17:32:25;12.88;72.07
71436;SHT31;59251;51.326;12.370;2022-09-17T17:34:51;12.78;73.73
71436;SHT31;59251;51.326;12.370;2022-09-17T17:37:16;12.53;73.44
71436;SHT31;59251;51.326;12.370;2022-09-17T17:39:41;12.53;74.87
71436;SHT31;59251;51.326;12.370;2022-09-17T17:42:07;12.23;76.87
71436;SHT31;59251;51.326;12.370;2022-09-17T17:44:32;12.13;76.90
71436;SHT31;59251;51.326;12.370;2022-09-17T17:46:58;12.00;77.48
71436;SHT31;59251;51.326;12.370;2022-09-17T17:49:23;11.93;78.99
71436;SHT31;59251;51.326;12.370;2022-09-17T17:51:48;12.05;77.53
71436;SHT31;59251;51.326;12.370;2022-09-17T17:54:14;12.16;76.40
71436;SHT31;59251;51.326;12.370;2022-09-17T17:56:39;11.97;78.14
71436;SHT31;59251;51.326;12.370;2022-09-17T17:59:05;12.03;77.84
71436;SHT31;59251;51.326;12.370;2022-09-17T18:01:30;11.96;78.14
71436;SHT31;59251;51.326;12.370;2022-09-17T18:04:00;12.03;78.32
71436;SHT31;59251;51.326;12.370;2022-09-17T18:06:26;11.95;79.00
71436;SHT31;59251;51.326;12.370;2022-09-17T18:08:52;11.99;78.69
71436;SHT31;59251;51.326;12.370;2022-09-17T18:11:18;11.87;78.41
71436;SHT31;59251;51.326;12.370;2022-09-17T18:13:44;11.59;79.28
71436;SHT31;59251;51.326;12.370;2022-09-17T18:16:11;11.62;79.65
71436;SHT31;59251;51.326;12.370;2022-09-17T18:18:39;11.59;80.42
71436;SHT31;59251;51.326;12.370;2022-09-17T18:21:07;11.47;80.08
71436;SHT31;59251;51.326;12.370;2022-09-17T18:23:35;11.71;79.11
71436;SHT31;59251;51.326;12.370;2022-09-17T18:26:02;11.45;81.00
71436;SHT31;59251;51.326;12.370;2022-09-17T18:28:28;11.59;79.70
71436;SHT31;59251;51.326;12.370;2022-09-17T18:30:55;11.79;80.09
71436;SHT31;59251;51.326;12.370;2022-09-17T18:33:23;11.71;80.50